Airfield :
LOGIN :

Register | Disclaimer

   EN    FR    IT 

 










Legend :    VFR   Marginal VFR   IFR   Intensive IFR   Very Intensive IFR
Visi :
Ceiling :
>= 8 km
>= 3000ft
5 to 8 km
1000 to 3000 ft
1500m to 5 km
500 to 1000 ft
800 to 1500m
200 to 500 ft
< 800m
< 200 ft
Symbols :   Thunderstorms  Fog  Heavy snow  Heavy precipitations  Wind > 20 kt
SIGMETs :     Misc.  Thunderstorms  Icing  Turbulence  Mountain Waves  Volcanic Ashes







- Airport Elevation : 278 ft
- IATA code : RJK


LDRI - Rijeka

CURRENT METAR :
  • 191800Z 33002KT CAVOK 14/12 Q1018

EXPIRED METARs :
  • 191730Z VRB01KT CAVOK 14/12 Q1018
  • 191700Z VRB01KT CAVOK 15/12 Q1018
  • 191630Z 31001KT CAVOK 15/13 Q1018
  • 191600Z 32002KT CAVOK 17/13 Q1017
  • 191530Z 31003KT CAVOK 18/12 Q1017

TAF TAF LDRI
Valid from the 19 at 18:00 until the 20 at 18:00 UTC


191725Z 1918/2018 VRB02KT CAVOK TX20/2013Z TN10/2004Z
PROB30
TEMPO 2000/2006 3000 MIFG BR
PROB40
TEMPO 2006/2016 BKN010
No reported NOTAMs for that airfield.



MET'MAP, your aeronautical weather chart ! - Copyright ORBIFLY December 2007 - Disclaimer

ORBIFLY MET'MAP TEAM :

Programming & Development : Alexandra Zaïnal
Concept & Development : Baudouin d'Aumeries
Co-Development & Prog : Marc-Olivier Méhu
Technical & hardware support : Manuel Goepfert

Contact : metmap@orbifly.com




SOURCES & CREDITS :

   NOAA